Time;durP1;ratioP1;P1;durP2;ratioP2;P2;SDS_P1;SDS_P2;PMS_P1;PMS_P2;Temp;Humidity;BMP_temperature;BMP_pressure;BME280_temperature;BME280_humidity;BME280_pressure;Samples;Min_cycle;Max_cycle;Signal;HPM_P1;HPM_P2
2022/05/01 00:01:23;;;;;;;11.45;7.55;;;8.60;65.60;;;;;;5092873;28;20051;-80
2022/05/01 00:03:50;;;;;;;8.85;7.30;;;8.60;65.60;;;;;;5092712;28;20044;-81
2022/05/01 00:06:19;;;;;;;12.63;8.45;;;8.50;65.70;;;;;;5092302;28;20055;-80
2022/05/01 00:09:04;;;;;;;10.40;7.78;;;8.50;65.70;;;;;;5092646;28;20589;-80
2022/05/01 00:11:31;;;;;;;12.43;8.32;;;8.50;65.80;;;;;;5092678;28;20097;-80
2022/05/01 00:13:58;;;;;;;10.48;7.80;;;8.50;65.90;;;;;;5092567;28;20116;-80
2022/05/01 00:16:25;;;;;;;10.75;7.60;;;8.50;65.90;;;;;;5092235;28;20097;-80
2022/05/01 00:18:52;;;;;;;9.82;7.75;;;8.40;65.90;;;;;;5092798;28;20094;-80
2022/05/01 00:21:19;;;;;;;10.95;8.18;;;8.40;66.00;;;;;;5092964;28;20105;-79
2022/05/01 00:23:46;;;;;;;10.93;7.75;;;8.40;66.00;;;;;;5092321;28;20040;-80
2022/05/01 00:26:13;;;;;;;10.30;8.10;;;8.40;66.10;;;;;;5092197;28;20044;-80
2022/05/01 00:28:40;;;;;;;12.98;8.50;;;8.40;66.10;;;;;;5092370;28;20044;-80
2022/05/01 00:31:07;;;;;;;13.48;8.50;;;8.40;66.20;;;;;;5092065;28;20075;-80
2022/05/01 00:36:28;;;;;;;11.20;8.15;;;8.40;66.30;;;;;;5092413;28;20048;-80
2022/05/01 00:39:01;;;;;;;9.30;8.18;;;8.40;66.30;;;;;;5092161;28;20052;-80
2022/05/01 00:41:31;;;;;;;11.43;8.27;;;8.40;66.30;;;;;;5092251;28;20127;-80
2022/05/01 00:44:03;;;;;;;11.10;8.10;;;8.30;66.40;;;;;;5092079;28;20044;-81
2022/05/01 00:46:32;;;;;;;10.45;7.82;;;8.30;66.40;;;;;;5091853;28;20050;-81
2022/05/01 00:49:04;;;;;;;10.25;8.07;;;8.30;66.40;;;;;;5092119;28;20044;-80
2022/05/01 00:51:41;;;;;;;10.48;7.70;;;8.20;66.50;;;;;;5092552;28;20052;-81
2022/05/01 00:54:08;;;;;;;11.60;8.60;;;8.20;66.50;;;;;;5091922;28;20052;-80
2022/05/01 00:56:39;;;;;;;11.57;8.52;;;8.20;66.50;;;;;;5091760;28;20043;-80
2022/05/01 00:59:06;;;;;;;10.23;8.88;;;8.20;66.50;;;;;;5091787;28;20445;-80
2022/05/01 01:01:34;;;;;;;11.82;9.10;;;8.20;66.60;;;;;;5091454;28;20106;-79
2022/05/01 01:04:02;;;;;;;12.85;9.25;;;8.10;66.60;;;;;;5091205;28;20040;-80
2022/05/01 01:06:48;;;;;;;10.82;9.00;;;8.10;66.70;;;;;;5088666;28;20039;-80
2022/05/01 01:09:16;;;;;;;11.73;9.00;;;8.10;66.70;;;;;;5092104;28;20127;-81
2022/05/01 01:11:43;;;;;;;12.60;9.15;;;8.00;66.80;;;;;;5091863;28;20047;-81
2022/05/01 01:14:11;;;;;;;10.95;8.43;;;8.00;66.90;;;;;;5091235;28;20044;-81
2022/05/01 01:16:39;;;;;;;10.70;9.10;;;8.00;67.00;;;;;;5091711;28;20052;-81
2022/05/01 01:19:08;;;;;;;12.55;9.23;;;7.90;67.00;;;;;;5091755;28;20044;-81
2022/05/01 01:21:36;;;;;;;11.43;8.55;;;7.90;67.10;;;;;;5092286;28;20056;-81
2022/05/01 01:24:06;;;;;;;10.05;8.80;;;7.90;67.10;;;;;;5091582;28;20060;-81
2022/05/01 01:26:36;;;;;;;12.57;8.85;;;7.90;67.20;;;;;;5091553;28;20108;-80
2022/05/01 01:31:40;;;;;;;10.27;8.48;;;7.90;67.20;;;;;;5091227;28;20048;-80
2022/05/01 01:31:55;;;;;;;12.30;9.30;;;7.90;67.30;;;;;;5091506;28;20052;-80
2022/05/01 01:34:30;;;;;;;12.00;9.18;;;7.90;67.30;;;;;;5091664;28;20046;-80
2022/05/01 01:36:57;;;;;;;13.10;9.38;;;7.80;67.30;;;;;;5091638;28;20459;-80
2022/05/01 01:39:25;;;;;;;12.32;8.70;;;7.80;67.40;;;;;;5091750;28;20090;-81
2022/05/01 01:41:54;;;;;;;11.18;9.55;;;7.70;67.40;;;;;;5091388;28;20429;-82
2022/05/01 01:44:23;;;;;;;11.73;9.27;;;7.70;67.40;;;;;;5090969;28;20486;-80
2022/05/01 01:46:50;;;;;;;12.15;9.27;;;7.70;67.40;;;;;;5091418;28;20433;-80
2022/05/01 01:49:18;;;;;;;12.30;9.23;;;7.70;67.50;;;;;;5091551;28;20153;-80
2022/05/01 01:51:44;;;;;;;11.27;9.70;;;7.60;67.50;;;;;;5091929;28;20052;-79
2022/05/01 01:54:11;;;;;;;12.60;9.85;;;7.70;67.60;;;;;;5091571;28;20109;-80
2022/05/01 01:56:38;;;;;;;11.43;9.57;;;7.60;67.60;;;;;;5091064;28;20513;-80
2022/05/01 01:59:05;;;;;;;12.18;9.15;;;7.60;67.60;;;;;;5090851;28;20044;-81
2022/05/01 02:01:32;;;;;;;12.70;9.68;;;7.60;67.70;;;;;;5091349;28;20502;-79
2022/05/01 02:03:59;;;;;;;13.90;8.80;;;7.50;67.70;;;;;;5091344;28;20044;-79
2022/05/01 02:06:26;;;;;;;12.10;9.45;;;7.50;67.70;;;;;;5091914;28;20089;-79
2022/05/01 02:09:12;;;;;;;10.98;9.75;;;7.50;67.80;;;;;;5091151;28;20052;-79
2022/05/01 02:11:39;;;;;;;12.38;9.75;;;7.50;67.80;;;;;;5091124;28;20417;-80
2022/05/01 02:14:10;;;;;;;14.18;10.70;;;7.40;67.80;;;;;;5091998;28;20048;-82
2022/05/01 02:16:37;;;;;;;12.63;9.60;;;7.40;67.80;;;;;;5094937;28;20044;-80
2022/05/01 02:19:03;;;;;;;12.98;10.57;;;7.40;67.90;;;;;;5094832;28;20048;-81
2022/05/01 02:21:36;;;;;;;10.77;9.43;;;7.40;67.90;;;;;;5095458;28;20106;-79
2022/05/01 02:24:12;;;;;;;14.67;9.80;;;7.30;67.90;;;;;;5094681;28;20066;-81
2022/05/01 02:26:40;;;;;;;12.90;9.65;;;7.30;68.00;;;;;;5094230;28;20653;-80
2022/05/01 02:29:12;;;;;;;12.68;10.15;;;7.30;68.00;;;;;;5094745;28;20059;-81
2022/05/01 02:31:40;;;;;;;15.55;10.20;;;7.30;68.00;;;;;;5094796;28;20044;-81
2022/05/01 02:34:09;;;;;;;12.40;10.18;;;7.20;68.10;;;;;;5094702;28;20048;-80
2022/05/01 02:36:36;;;;;;;12.65;10.38;;;7.20;68.10;;;;;;5095101;28;20128;-80
2022/05/01 02:39:04;;;;;;;14.63;10.00;;;7.20;68.20;;;;;;5094222;28;20117;-80
2022/05/01 02:41:32;;;;;;;14.23;10.35;;;7.10;68.20;;;;;;5093101;28;20115;-80
2022/05/01 02:43:59;;;;;;;15.52;10.40;;;7.10;68.20;;;;;;5094293;28;20082;-80
2022/05/01 02:46:26;;;;;;;11.55;9.70;;;7.10;68.20;;;;;;5094691;28;20047;-79
2022/05/01 02:48:53;;;;;;;13.55;9.90;;;7.10;68.20;;;;;;5094417;28;20048;-79
2022/05/01 02:51:20;;;;;;;13.60;10.45;;;7.00;68.30;;;;;;5094737;28;20097;-81
2022/05/01 02:53:47;;;;;;;12.88;10.07;;;7.00;68.40;;;;;;5094102;28;20456;-82
2022/05/01 02:56:14;;;;;;;13.48;10.07;;;7.00;68.30;;;;;;5093857;28;20047;-80
2022/05/01 02:58:41;;;;;;;13.02;10.65;;;7.00;68.40;;;;;;5094148;28;20044;-80
2022/05/01 03:01:08;;;;;;;12.13;10.15;;;6.90;68.40;;;;;;5092855;28;20048;-82
2022/05/01 03:03:36;;;;;;;13.63;10.02;;;6.90;68.40;;;;;;5094641;28;20052;-80
2022/05/01 03:06:03;;;;;;;15.60;11.02;;;6.90;68.50;;;;;;5093938;28;20059;-80
2022/05/01 03:08:30;;;;;;;13.65;10.40;;;6.90;68.50;;;;;;5093701;28;20040;-80
2022/05/01 03:10:56;;;;;;;13.05;10.48;;;6.90;68.50;;;;;;5093601;28;20097;-81
2022/05/01 03:13:23;;;;;;;16.35;11.13;;;6.90;68.60;;;;;;5092764;28;20588;-81
2022/05/01 03:15:50;;;;;;;12.07;10.43;;;6.90;68.60;;;;;;5094070;28;20048;-79
2022/05/01 03:23:49;;;;;;;15.52;9.98;;;6.80;68.70;;;;;;5093491;28;20535;-82
2022/05/01 03:26:19;;;;;;;11.98;9.90;;;6.70;68.70;;;;;;5092260;28;20383;-81
2022/05/01 03:28:47;;;;;;;12.85;10.65;;;6.70;68.70;;;;;;5093462;28;20571;-81
2022/05/01 03:31:15;;;;;;;11.95;9.75;;;6.70;68.80;;;;;;5077555;28;20101;-81
2022/05/01 03:33:44;;;;;;;13.27;10.77;;;6.70;68.80;;;;;;5089941;28;20040;-81
2022/05/01 03:36:12;;;;;;;14.02;10.70;;;6.60;68.80;;;;;;5093607;28;20138;-81
2022/05/01 03:38:42;;;;;;;12.43;10.25;;;6.60;68.80;;;;;;5092995;28;20109;-80
2022/05/01 03:41:13;;;;;;;16.55;11.02;;;6.60;68.90;;;;;;5092777;28;20119;-81
2022/05/01 03:43:40;;;;;;;13.77;10.95;;;6.60;68.90;;;;;;5093267;28;20044;-80
2022/05/01 03:46:08;;;;;;;14.80;10.52;;;6.60;68.90;;;;;;5093286;28;20052;-81
2022/05/01 03:48:35;;;;;;;15.05;10.32;;;6.50;69.00;;;;;;5093728;28;20470;-81
2022/05/01 03:51:02;;;;;;;14.25;10.55;;;6.50;69.00;;;;;;5093091;28;20048;-81
2022/05/01 03:53:32;;;;;;;12.45;10.30;;;6.50;69.00;;;;;;5093098;28;20090;-80
2022/05/01 03:55:59;;;;;;;13.20;10.63;;;6.50;69.00;;;;;;5092561;28;20468;-80
2022/05/01 03:58:27;;;;;;;13.57;10.93;;;6.50;69.00;;;;;;5092912;28;20044;-80
2022/05/01 04:00:53;;;;;;;15.07;10.80;;;6.40;69.00;;;;;;5093058;28;20044;-80
2022/05/01 04:03:20;;;;;;;14.02;11.20;;;6.40;69.00;;;;;;5093141;28;20048;-80
2022/05/01 04:05:48;;;;;;;13.52;10.70;;;6.40;69.00;;;;;;5092795;28;20075;-80
2022/05/01 04:08:15;;;;;;;13.57;11.32;;;6.40;69.00;;;;;;5092317;28;20047;-80
2022/05/01 04:10:43;;;;;;;13.75;10.30;;;6.40;69.00;;;;;;5092747;28;20044;-80
2022/05/01 04:13:11;;;;;;;13.18;10.45;;;6.30;69.00;;;;;;5092751;28;20044;-81
2022/05/01 04:15:39;;;;;;;11.85;9.75;;;6.30;69.10;;;;;;5093138;28;20501;-82
2022/05/01 04:18:06;;;;;;;12.52;10.68;;;6.30;69.10;;;;;;5092409;28;20105;-81
2022/05/01 04:20:34;;;;;;;13.25;10.77;;;6.30;69.10;;;;;;5092304;28;20044;-81
2022/05/01 04:23:03;;;;;;;12.13;10.13;;;6.30;69.10;;;;;;5092169;28;20048;-80
2022/05/01 04:25:31;;;;;;;13.07;10.32;;;6.20;69.10;;;;;;5092505;28;20082;-80
2022/05/01 04:28:00;;;;;;;14.55;11.05;;;6.20;69.00;;;;;;5092392;28;20048;-80
2022/05/01 04:30:29;;;;;;;15.38;10.63;;;6.20;69.00;;;;;;5091116;28;20044;-79
2022/05/01 04:33:03;;;;;;;17.00;10.60;;;6.20;69.00;;;;;;5092332;28;20082;-80
2022/05/01 04:35:35;;;;;;;14.00;10.68;;;6.20;69.00;;;;;;5092299;28;20040;-80
2022/05/01 04:38:04;;;;;;;14.05;11.30;;;6.10;69.00;;;;;;5091365;28;20108;-80
2022/05/01 04:40:38;;;;;;;13.38;10.93;;;6.10;69.00;;;;;;5092205;28;20391;-80
2022/05/01 04:43:07;;;;;;;12.85;10.32;;;6.10;69.00;;;;;;5092307;28;20058;-80
2022/05/01 04:45:35;;;;;;;15.75;11.88;;;6.00;69.00;;;;;;5092738;28;20060;-80
2022/05/01 04:48:03;;;;;;;15.18;11.38;;;6.00;69.00;;;;;;5092047;28;20051;-80
2022/05/01 04:50:31;;;;;;;14.15;11.48;;;6.00;69.00;;;;;;5091893;28;20418;-82
2022/05/01 04:53:00;;;;;;;15.15;10.93;;;6.00;69.10;;;;;;5091768;28;20059;-82
2022/05/01 04:55:28;;;;;;;13.40;10.88;;;6.00;69.10;;;;;;5091026;28;20093;-80
2022/05/01 04:57:55;;;;;;;12.77;11.13;;;6.00;69.10;;;;;;5091816;28;20048;-80
2022/05/01 05:00:22;;;;;;;15.75;11.10;;;5.90;69.10;;;;;;5092464;28;20044;-81
2022/05/01 05:02:51;;;;;;;15.43;11.60;;;6.00;69.20;;;;;;5091906;28;20044;-80
2022/05/01 05:05:20;;;;;;;13.80;10.98;;;5.90;69.20;;;;;;5091874;28;20050;-80
2022/05/01 05:07:48;;;;;;;12.02;10.55;;;5.90;69.30;;;;;;5091542;28;20048;-79
2022/05/01 05:10:16;;;;;;;13.65;10.90;;;5.90;69.30;;;;;;5076243;28;20044;-80
2022/05/01 05:12:45;;;;;;;15.45;11.38;;;5.90;69.40;;;;;;5088346;28;20586;-80
2022/05/01 05:15:15;;;;;;;13.70;11.07;;;5.90;69.40;;;;;;5091949;28;20563;-80
2022/05/01 05:17:43;;;;;;;16.05;12.65;;;5.90;69.40;;;;;;5091739;28;20130;-80
2022/05/01 05:20:11;;;;;;;14.27;11.80;;;5.90;69.50;;;;;;5091617;28;20044;-80
2022/05/01 05:22:42;;;;;;;12.95;11.05;;;5.90;69.60;;;;;;5091516;28;20047;-81
2022/05/01 05:25:11;;;;;;;13.93;10.82;;;5.90;69.60;;;;;;5091702;28;20047;-80
2022/05/01 05:27:38;;;;;;;14.57;11.57;;;5.90;69.70;;;;;;5092136;28;20103;-80
2022/05/01 05:30:06;;;;;;;13.95;11.35;;;5.90;69.70;;;;;;5091481;28;20105;-80
2022/05/01 05:32:35;;;;;;;15.65;11.77;;;5.90;69.80;;;;;;5091560;28;20105;-81
2022/05/01 05:35:03;;;;;;;13.80;12.20;;;5.90;69.90;;;;;;5091590;28;20040;-79
2022/05/01 05:37:31;;;;;;;14.32;11.82;;;5.90;70.00;;;;;;5091139;28;20093;-79
2022/05/01 05:39:59;;;;;;;14.80;11.63;;;5.90;70.10;;;;;;5091617;28;20062;-79
2022/05/01 05:42:26;;;;;;;15.25;11.80;;;5.90;70.10;;;;;;5090056;28;20131;-80
2022/05/01 05:44:53;;;;;;;14.38;11.35;;;5.90;70.10;;;;;;5091490;28;20456;-81
2022/05/01 05:47:20;;;;;;;14.93;12.38;;;5.90;70.20;;;;;;5091324;28;20464;-80
2022/05/01 05:49:47;;;;;;;15.43;12.73;;;5.90;70.30;;;;;;5093613;28;20052;-79
2022/05/01 05:52:19;;;;;;;15.25;11.52;;;5.90;70.40;;;;;;5079992;28;22303;-80
2022/05/01 05:54:46;;;;;;;14.23;12.32;;;5.90;70.40;;;;;;5094814;28;20090;-80
2022/05/01 05:57:13;;;;;;;15.88;12.88;;;5.90;70.50;;;;;;5095085;28;20164;-79
2022/05/01 05:59:40;;;;;;;16.35;12.20;;;6.00;70.50;;;;;;5095094;28;20109;-82
2022/05/01 06:02:07;;;;;;;15.90;11.48;;;6.00;70.60;;;;;;5095259;28;20100;-82
2022/05/01 06:04:34;;;;;;;16.75;12.50;;;6.00;70.70;;;;;;5094900;28;20047;-81
2022/05/01 06:07:01;;;;;;;16.58;13.13;;;6.00;70.70;;;;;;5095194;28;20564;-79
2022/05/01 06:09:47;;;;;;;15.48;11.98;;;6.00;70.80;;;;;;5095627;28;20116;-80
2022/05/01 06:12:14;;;;;;;15.18;12.18;;;6.10;70.90;;;;;;5095142;28;20409;-79
2022/05/01 06:14:41;;;;;;;15.20;12.70;;;6.10;70.90;;;;;;5094993;28;20044;-80
2022/05/01 06:17:08;;;;;;;14.95;12.30;;;6.20;70.90;;;;;;5094583;28;20052;-80
2022/05/01 06:19:36;;;;;;;15.52;12.18;;;6.20;71.00;;;;;;5094558;28;20566;-81
2022/05/01 06:22:03;;;;;;;13.80;12.10;;;6.20;71.10;;;;;;5094909;28;20502;-81
2022/05/01 06:24:48;;;;;;;14.38;11.80;;;6.30;71.10;;;;;;5095366;28;20056;-81
2022/05/01 06:27:15;;;;;;;14.18;12.07;;;6.30;71.10;;;;;;5091545;28;20059;-80
2022/05/01 06:29:42;;;;;;;14.85;11.93;;;6.40;71.10;;;;;;5083623;28;20048;-80
2022/05/01 06:32:10;;;;;;;15.38;12.68;;;6.50;71.10;;;;;;5082960;28;20041;-81
2022/05/01 06:34:38;;;;;;;15.32;11.80;;;6.50;71.10;;;;;;5088325;28;20044;-80
2022/05/01 06:37:05;;;;;;;15.32;11.73;;;6.50;71.00;;;;;;5083341;28;20546;-80
2022/05/01 06:39:32;;;;;;;15.30;11.65;;;6.60;71.10;;;;;;5078890;28;20564;-79
2022/05/01 06:41:59;;;;;;;13.77;11.90;;;6.70;71.00;;;;;;5079041;28;20049;-79
2022/05/01 06:44:26;;;;;;;15.07;12.57;;;6.70;71.10;;;;;;5081666;28;20047;-80
2022/05/01 06:46:53;;;;;;;16.00;11.80;;;6.80;71.10;;;;;;5089713;28;20109;-80
2022/05/01 06:49:20;;;;;;;15.50;11.95;;;6.80;71.10;;;;;;5074890;28;20056;-80
2022/05/01 06:51:47;;;;;;;16.02;11.35;;;6.90;71.20;;;;;;5077706;28;20048;-80
2022/05/01 06:54:14;;;;;;;16.27;12.32;;;6.90;71.20;;;;;;5073991;28;20052;-80
2022/05/01 06:56:41;;;;;;;16.38;13.40;;;7.00;71.20;;;;;;5078869;28;20049;-79
2022/05/01 06:59:08;;;;;;;14.23;12.30;;;7.00;71.20;;;;;;5078743;28;20057;-79
2022/05/01 07:01:35;;;;;;;15.02;12.65;;;7.10;71.30;;;;;;5076939;28;20090;-80
2022/05/01 07:04:03;;;;;;;13.68;12.13;;;7.20;71.40;;;;;;5075341;28;20048;-80
2022/05/01 07:06:30;;;;;;;15.90;13.10;;;7.30;71.40;;;;;;5078621;28;20124;-79
2022/05/01 07:08:56;;;;;;;14.65;13.15;;;7.40;71.40;;;;;;5085200;28;20497;-79
2022/05/01 07:11:23;;;;;;;14.73;12.68;;;7.40;71.40;;;;;;5084903;28;20400;-80
2022/05/01 07:13:50;;;;;;;16.83;13.38;;;7.50;71.50;;;;;;5078312;28;20094;-79
2022/05/01 07:16:19;;;;;;;15.05;12.68;;;7.50;71.60;;;;;;5074611;28;20392;-81
2022/05/01 07:18:47;;;;;;;16.40;13.57;;;7.60;71.60;;;;;;5076620;28;20066;-81
2022/05/01 07:21:13;;;;;;;16.63;13.25;;;7.70;71.70;;;;;;5073320;28;20399;-81
2022/05/01 07:23:40;;;;;;;17.00;14.18;;;7.80;71.80;;;;;;5072472;28;20499;-81
2022/05/01 07:26:07;;;;;;;16.30;14.23;;;7.90;71.80;;;;;;5078175;28;20051;-80
2022/05/01 07:28:34;;;;;;;17.33;14.35;;;8.00;71.90;;;;;;5076337;28;20158;-80
2022/05/01 07:31:03;;;;;;;15.80;13.05;;;8.00;72.00;;;;;;5075758;28;20045;-80
2022/05/01 07:33:30;;;;;;;17.63;14.07;;;8.10;72.00;;;;;;5077825;28;20101;-80
2022/05/01 07:35:58;;;;;;;19.42;14.90;;;8.20;72.00;;;;;;5077880;28;20265;-79
2022/05/01 07:38:24;;;;;;;21.48;15.38;;;8.30;72.10;;;;;;5077761;28;20059;-78
2022/05/01 07:40:53;;;;;;;17.10;14.52;;;8.40;72.10;;;;;;5077951;28;20040;-81
2022/05/01 07:43:20;;;;;;;15.10;13.23;;;8.50;72.10;;;;;;5073739;28;20040;-80
2022/05/01 07:45:47;;;;;;;16.20;14.50;;;8.50;72.10;;;;;;5076399;28;20399;-79
2022/05/01 07:48:15;;;;;;;20.63;15.38;;;8.60;72.10;;;;;;5078569;28;20049;-79
2022/05/01 07:50:42;;;;;;;16.80;13.98;;;8.70;72.10;;;;;;5077679;28;20048;-78
2022/05/01 07:53:09;;;;;;;16.73;13.60;;;8.80;72.00;;;;;;5077608;28;20056;-79
2022/05/01 07:55:36;;;;;;;17.35;14.18;;;8.90;72.00;;;;;;5076433;28;20110;-80
2022/05/01 07:58:03;;;;;;;15.70;12.98;;;9.00;71.90;;;;;;5074515;28;20048;-80
2022/05/01 08:00:29;;;;;;;16.92;13.75;;;9.00;71.80;;;;;;5077210;28;20085;-79
2022/05/01 08:05:42;;;;;;;16.50;13.07;;;9.20;71.60;;;;;;5077376;28;20049;-79
2022/05/01 08:08:09;;;;;;;18.90;13.45;;;9.40;71.50;;;;;;5077340;28;20053;-80
2022/05/01 08:10:36;;;;;;;19.45;12.85;;;9.40;71.40;;;;;;5076009;28;20110;-79
2022/05/01 08:13:03;;;;;;;16.48;12.55;;;9.50;71.30;;;;;;5073948;28;20052;-79
2022/05/01 08:15:30;;;;;;;18.40;12.20;;;9.60;71.20;;;;;;5077133;28;20114;-81
2022/05/01 08:23:29;;;;;;;16.35;12.43;;;9.90;70.70;;;;;;5077166;28;20044;-79
2022/05/01 08:25:58;;;;;;;14.98;11.55;;;10.00;70.50;;;;;;5075251;28;20049;-78
2022/05/01 08:28:25;;;;;;;16.10;11.05;;;10.00;70.30;;;;;;5088591;28;20037;-79
2022/05/01 08:30:51;;;;;;;14.82;10.70;;;10.10;70.10;;;;;;5074723;28;20044;-81
2022/05/01 08:33:18;;;;;;;17.30;11.23;;;10.20;70.00;;;;;;5087037;28;20076;-80
2022/05/01 08:35:45;;;;;;;14.70;10.93;;;10.30;69.80;;;;;;5080791;28;20105;-79
2022/05/01 08:38:12;;;;;;;15.68;10.82;;;10.40;69.60;;;;;;5076414;28;20056;-80
2022/05/01 08:40:40;;;;;;;14.63;10.25;;;10.50;69.40;;;;;;5075754;28;20093;-79
2022/05/01 08:43:07;;;;;;;16.63;10.45;;;10.60;69.20;;;;;;5073298;28;20112;-79
2022/05/01 08:46:17;;;;;;;13.65;9.70;;;10.60;68.90;;;;;;5076597;28;20045;-80
2022/05/01 08:49:06;;;;;;;16.60;9.80;;;10.80;68.70;;;;;;5088614;28;20087;-79
2022/05/01 08:51:39;;;;;;;13.18;9.43;;;10.90;68.40;;;;;;5076753;28;20056;-79
2022/05/01 08:54:11;;;;;;;15.57;9.53;;;10.90;68.20;;;;;;5076761;28;20048;-78
2022/05/01 08:56:41;;;;;;;12.43;8.75;;;11.00;68.00;;;;;;5076561;28;20094;-78
2022/05/01 08:59:14;;;;;;;12.88;8.85;;;11.20;67.80;;;;;;5076131;28;20055;-79
2022/05/01 09:01:43;;;;;;;14.98;9.25;;;11.30;67.60;;;;;;5075653;28;20040;-80
2022/05/01 09:04:14;;;;;;;13.52;9.05;;;11.40;67.30;;;;;;5073456;28;20135;-79
2022/05/01 09:06:43;;;;;;;13.73;9.70;;;11.40;67.10;;;;;;5087944;28;20079;-79
2022/05/01 09:09:17;;;;;;;14.18;8.77;;;11.50;66.90;;;;;;5084951;28;20116;-80
2022/05/01 09:14:32;;;;;;;13.20;8.60;;;11.70;66.50;;;;;;5076327;28;20048;-79
2022/05/01 09:17:25;;;;;;;15.02;8.68;;;11.70;66.20;;;;;;5076353;28;20045;-78
2022/05/01 09:20:04;;;;;;;13.27;8.20;;;11.90;66.00;;;;;;5074534;28;20044;-78
2022/05/01 09:22:50;;;;;;;11.45;8.07;;;12.00;65.80;;;;;;5074016;28;20045;-78
2022/05/01 09:25:19;;;;;;;13.10;8.50;;;12.10;65.50;;;;;;5075752;28;20036;-79
2022/05/01 09:27:46;;;;;;;12.63;7.85;;;12.10;65.30;;;;;;5079208;28;20044;-79
2022/05/01 09:30:21;;;;;;;13.15;7.60;;;12.20;65.00;;;;;;5080821;28;20049;-78
2022/05/01 09:32:49;;;;;;;13.55;7.32;;;12.30;64.80;;;;;;5087378;28;20048;-79
2022/05/01 09:35:31;;;;;;;10.75;7.20;;;12.40;64.40;;;;;;5087912;28;20036;-79
2022/05/01 09:38:17;;;;;;;11.18;6.70;;;12.50;64.10;;;;;;5079558;28;20131;-78
2022/05/01 09:40:46;;;;;;;9.68;6.57;;;12.60;63.80;;;;;;5079718;28;20501;-78
2022/05/01 09:43:34;;;;;;;10.95;6.30;;;12.60;63.50;;;;;;5075607;28;20078;-81
2022/05/01 09:46:16;;;;;;;12.07;7.38;;;12.70;63.10;;;;;;5092201;28;20076;-79
2022/05/01 09:49:03;;;;;;;10.25;6.93;;;12.80;62.80;;;;;;5091645;28;20051;-80
2022/05/01 09:51:34;;;;;;;9.55;6.18;;;12.90;62.60;;;;;;5079602;28;20044;-80
2022/05/01 09:54:08;;;;;;;9.73;6.25;;;12.90;62.40;;;;;;5079957;28;20053;-79
2022/05/01 09:56:46;;;;;;;10.05;6.60;;;13.00;62.20;;;;;;5079712;28;20040;-79
2022/05/01 09:59:14;;;;;;;10.57;6.10;;;13.10;61.90;;;;;;5079808;28;20505;-79
2022/05/01 10:02:03;;;;;;;11.57;6.50;;;13.10;61.70;;;;;;5077268;28;20110;-80
2022/05/01 10:04:35;;;;;;;9.05;5.53;;;13.20;61.40;;;;;;5077009;28;20044;-78
2022/05/01 10:07:04;;;;;;;9.63;6.07;;;13.20;61.30;;;;;;5091540;28;20058;-79
2022/05/01 10:09:34;;;;;;;10.82;5.55;;;13.30;61.00;;;;;;5091189;28;20044;-78
2022/05/01 10:12:08;;;;;;;9.95;6.10;;;13.40;60.80;;;;;;5080855;28;20052;-78
2022/05/01 10:14:35;;;;;;;10.05;5.90;;;13.40;60.60;;;;;;5083312;28;20043;-78
2022/05/01 10:17:04;;;;;;;8.63;5.90;;;13.40;60.40;;;;;;5089246;28;20077;-78
2022/05/01 10:19:32;;;;;;;9.68;5.30;;;13.50;60.20;;;;;;5077044;28;20048;-77
2022/05/01 10:22:19;;;;;;;7.75;5.03;;;13.50;60.00;;;;;;5077158;28;20079;-80
2022/05/01 10:24:46;;;;;;;8.20;5.28;;;13.60;59.80;;;;;;5078511;28;20045;-79
2022/05/01 10:27:26;;;;;;;6.78;4.60;;;13.60;59.50;;;;;;5088646;28;20105;-79
2022/05/01 10:33:34;;;;;;;8.23;4.80;;;13.70;59.10;;;;;;5079295;28;20118;-79
2022/05/01 10:36:20;;;;;;;9.75;5.30;;;13.80;58.80;;;;;;5078694;28;20048;-79
2022/05/01 10:39:18;;;;;;;10.35;5.10;;;13.80;58.50;;;;;;5078784;28;20048;-77
2022/05/01 10:41:45;;;;;;;7.75;4.78;;;13.90;58.30;;;;;;5078933;28;20518;-79
2022/05/01 10:44:40;;;;;;;7.40;4.53;;;13.90;58.10;;;;;;5079087;28;20044;-78
2022/05/01 10:47:17;;;;;;;10.05;4.75;;;13.90;57.90;;;;;;5079149;28;20055;-78
2022/05/01 10:50:03;;;;;;;7.07;4.22;;;13.90;57.60;;;;;;5078274;28;20452;-78
2022/05/01 10:52:30;;;;;;;7.47;4.15;;;14.00;57.40;;;;;;5076643;28;20498;-78
2022/05/01 10:55:01;;;;;;;6.95;4.25;;;14.00;57.20;;;;;;5076346;28;20052;-78
2022/05/01 10:57:28;;;;;;;7.97;4.53;;;14.00;57.10;;;;;;5078863;28;20045;-78
2022/05/01 11:00:05;;;;;;;7.50;4.00;;;14.10;56.90;;;;;;5078656;28;20049;-79
2022/05/01 11:02:38;;;;;;;11.95;4.65;;;14.10;56.70;;;;;;5080535;28;20101;-78
2022/05/01 11:05:08;;;;;;;7.10;4.28;;;14.20;56.50;;;;;;5078989;28;20048;-78
2022/05/01 11:07:37;;;;;;;7.82;4.30;;;14.20;56.30;;;;;;5076806;28;20102;-78
2022/05/01 11:10:09;;;;;;;9.73;4.75;;;14.20;56.10;;;;;;5075207;28;20049;-79
2022/05/01 11:12:37;;;;;;;8.27;4.20;;;14.30;56.00;;;;;;5078588;28;20524;-78
2022/05/01 11:15:08;;;;;;;10.57;3.95;;;14.30;55.80;;;;;;5078487;28;20121;-78
2022/05/01 11:17:53;;;;;;;7.15;4.00;;;14.40;55.70;;;;;;5078437;28;20486;-78
2022/05/01 11:20:21;;;;;;;7.43;4.13;;;14.40;55.50;;;;;;5078193;28;20041;-78
2022/05/01 11:22:48;;;;;;;8.77;3.92;;;14.40;55.40;;;;;;5076973;28;20479;-79
2022/05/01 11:25:19;;;;;;;6.72;4.25;;;14.40;55.30;;;;;;5084190;28;20464;-78
2022/05/01 11:27:50;;;;;;;6.75;4.00;;;14.50;55.10;;;;;;5089952;28;20172;-78
2022/05/01 11:30:26;;;;;;;8.80;4.43;;;14.50;55.00;;;;;;5078727;28;20502;-78
2022/05/01 11:33:10;;;;;;;7.97;4.03;;;14.60;54.90;;;;;;5077988;28;20045;-79
2022/05/01 11:35:56;;;;;;;5.95;3.78;;;14.60;54.80;;;;;;5077827;28;20056;-78
2022/05/01 11:38:33;;;;;;;5.68;4.05;;;14.70;54.60;;;;;;5077238;28;20044;-79
2022/05/01 11:41:02;;;;;;;8.20;4.05;;;14.80;54.40;;;;;;5076501;28;20122;-79
2022/05/01 11:43:30;;;;;;;5.90;3.65;;;14.80;54.30;;;;;;5089490;28;20090;-78
2022/05/01 11:45:58;;;;;;;6.40;4.35;;;14.90;54.10;;;;;;5074926;28;20049;-79
2022/05/01 11:48:25;;;;;;;10.45;4.13;;;14.90;54.00;;;;;;5077302;28;20555;-79
2022/05/01 11:50:53;;;;;;;7.75;3.97;;;14.90;53.80;;;;;;5077712;28;20053;-79
2022/05/01 11:53:32;;;;;;;6.35;3.85;;;15.00;53.70;;;;;;5077112;28;20063;-79
2022/05/01 12:04:50;;;;;;;7.68;4.00;;;15.20;53.30;;;;;;5075046;28;20041;-79
2022/05/01 12:07:18;;;;;;;7.15;3.83;;;15.30;53.20;;;;;;5072720;28;20399;-78
2022/05/01 12:09:46;;;;;;;6.35;3.90;;;15.30;53.10;;;;;;5076852;28;20106;-79
2022/05/01 12:12:19;;;;;;;6.57;4.15;;;15.30;53.00;;;;;;5087624;28;20063;-78
2022/05/01 12:14:48;;;;;;;10.98;4.53;;;15.40;52.80;;;;;;5077112;28;20052;-78
2022/05/01 12:17:18;;;;;;;6.60;4.25;;;15.40;52.70;;;;;;5078246;28;20510;-78
2022/05/01 12:19:54;;;;;;;5.95;3.70;;;15.50;52.60;;;;;;5087932;28;20048;-78
2022/05/01 12:22:25;;;;;;;6.55;3.80;;;15.50;52.50;;;;;;5073607;28;20081;-79
2022/05/01 12:24:55;;;;;;;7.18;3.97;;;15.60;52.40;;;;;;5088564;28;20506;-78
2022/05/01 12:27:26;;;;;;;8.38;4.03;;;15.70;52.20;;;;;;5087411;28;20048;-78
2022/05/01 12:29:54;;;;;;;5.43;3.40;;;15.70;52.10;;;;;;5079592;28;20045;-78
2022/05/01 12:32:21;;;;;;;6.55;3.60;;;15.70;52.00;;;;;;5080250;28;20051;-78
2022/05/01 12:34:49;;;;;;;6.53;3.60;;;15.80;51.90;;;;;;5088418;28;20051;-78
2022/05/01 12:37:29;;;;;;;6.80;3.95;;;15.80;51.80;;;;;;5072458;28;20040;-78
2022/05/01 12:40:00;;;;;;;6.80;3.63;;;15.90;51.70;;;;;;5074096;28;20518;-80
2022/05/01 12:45:41;;;;;;;6.28;3.22;;;15.90;51.50;;;;;;5076727;28;20044;-79
2022/05/01 12:48:11;;;;;;;5.82;3.30;;;15.90;51.40;;;;;;5076821;28;20106;-79
2022/05/01 12:50:38;;;;;;;6.18;3.30;;;16.00;51.20;;;;;;5076318;28;20560;-79
2022/05/01 12:53:28;;;;;;;6.20;3.20;;;16.10;51.10;;;;;;5076701;28;20421;-79
2022/05/01 12:56:02;;;;;;;6.07;3.60;;;16.10;50.90;;;;;;5076663;28;20457;-80
2022/05/01 12:58:33;;;;;;;6.72;3.78;;;16.20;50.80;;;;;;5073777;28;20576;-80
2022/05/01 13:01:04;;;;;;;6.72;3.17;;;16.20;50.70;;;;;;5074209;28;20067;-80
2022/05/01 13:03:38;;;;;;;6.28;3.55;;;16.20;50.60;;;;;;5076631;28;20048;-78
2022/05/01 13:06:15;;;;;;;5.88;3.40;;;16.30;50.50;;;;;;5076232;28;20131;-78
2022/05/01 13:08:44;;;;;;;5.18;3.33;;;16.30;50.50;;;;;;5081350;28;20101;-80
2022/05/01 13:11:14;;;;;;;7.15;3.50;;;16.30;50.40;;;;;;5084964;28;20036;-80
2022/05/01 13:13:55;;;;;;;8.43;3.42;;;16.30;50.40;;;;;;5086126;28;20532;-80
2022/05/01 13:16:30;;;;;;;7.60;3.70;;;16.40;50.30;;;;;;5073753;28;20043;-80
2022/05/01 13:18:59;;;;;;;6.72;3.65;;;16.40;50.30;;;;;;5087871;28;20384;-79
2022/05/01 13:21:31;;;;;;;5.28;3.17;;;16.40;50.40;;;;;;5071737;28;20522;-80
2022/05/01 13:24:32;;;;;;;6.68;3.60;;;16.40;50.40;;;;;;5076567;28;20110;-79
2022/05/01 13:27:01;;;;;;;6.60;3.85;;;16.50;50.30;;;;;;5076494;28;20514;-80
2022/05/01 13:29:47;;;;;;;6.32;3.53;;;16.50;50.40;;;;;;5076347;28;20041;-80
2022/05/01 13:32:18;;;;;;;6.88;3.80;;;16.60;50.30;;;;;;5076119;28;20052;-79